Time;durP1;ratioP1;P1;durP2;ratioP2;P2;SDS_P1;SDS_P2;PMS_P1;PMS_P2;Temp;Humidity;BMP_temperature;BMP_pressure;BME280_temperature;BME280_humidity;BME280_pressure;Samples;Min_cycle;Max_cycle;Signal;HPM_P1;HPM_P2
2021/11/03 04:30:46;;;;;;;1001.40;910.73;;;4.20;99.90;;;;;;6229831;22;1353247;-84
2021/11/03 05:34:30;;;;;;;985.80;894.83;;;4.20;99.90;;;;;;5952024;23;20945;-88
2021/11/03 05:36:57;;;;;;;985.43;894.13;;;4.30;99.90;;;;;;6078260;23;20447;-83
2021/11/03 05:39:26;;;;;;;979.57;888.37;;;4.30;99.90;;;;;;6091513;23;21010;-82
2021/11/03 07:40:30;;;;;;;929.93;838.10;;;5.20;99.90;;;;;;6037768;23;20492;-85
2021/11/03 08:00:30;;;;;;;896.40;809.03;;;5.70;99.90;;;;;;6020528;23;20412;-83
2021/11/03 08:03:32;;;;;;;896.73;807.13;;;5.90;99.90;;;;;;6129971;23;20498;-83
2021/11/03 08:06:28;;;;;;;893.57;806.47;;;5.90;99.90;;;;;;6121949;23;20513;-83
2021/11/03 08:12:23;;;;;;;;;;;;;;;;;;;;;
2021/11/03 08:14:52;;;;;;;878.80;794.60;;;6.00;99.90;;;;;;6169271;23;20456;-83
2021/11/03 08:17:58;;;;;;;;;;;;;;;;;;;;;
2021/11/03 08:20:56;;;;;;;876.53;793.50;;;6.10;99.90;;;;;;6046283;23;20426;-83
2021/11/03 08:23:56;;;;;;;;;;;;;;;;;;;;;
2021/11/03 08:26:23;;;;;;;847.70;767.50;;;6.20;99.90;;;;;;6276781;22;20917;-77
2021/11/03 08:32:34;;;;;;;;;;;;;;;;;;;;;
2021/11/03 08:35:32;;;;;;;840.63;760.63;;;6.30;99.90;;;;;;6276776;22;20402;-83
2021/11/03 08:41:40;;;;;;;845.80;765.23;;;6.50;99.90;;;;;;5952344;24;20423;-83
2021/11/03 08:44:14;;;;;;;826.43;746.97;;;6.40;99.90;;;;;;5960343;23;20414;-85
2021/11/03 08:47:12;;;;;;;830.90;751.30;;;6.50;99.90;;;;;;6026028;23;20526;-84
2021/11/03 08:49:51;;;;;;;858.67;779.15;;;6.50;99.90;;;;;;6124796;23;20421;-84
2021/11/03 08:52:52;;;;;;;821.20;748.13;;;6.50;99.90;;;;;;6163580;23;20217;-84
2021/11/03 08:55:44;;;;;;;;;;;;;;;;;;;;;
2021/11/03 08:58:34;;;;;;;802.13;728.33;;;6.60;99.90;;;;;;6153164;23;20484;-84
2021/11/03 09:01:17;;;;;;;;;;;;;;;;;;;;;
2021/11/03 09:04:09;;;;;;;810.27;736.67;;;6.80;99.90;;;;;;6192778;23;20499;-83
2021/11/03 09:06:50;;;;;;;;;;;;;;;;;;;;;
2021/11/03 09:09:23;;;;;;;784.77;711.97;;;6.90;99.90;;;;;;6287265;22;20398;-85
2021/11/03 09:12:04;;;;;;;791.03;719.13;;;7.10;99.90;;;;;;6287277;22;20744;-82
2021/11/03 09:14:31;;;;;;;783.23;713.73;;;7.10;99.90;;;;;;6277308;22;20426;-83
2021/11/03 09:17:20;;;;;;;;;;;;;;;;;;;;;
2021/11/03 09:20:12;;;;;;;776.20;706.20;;;7.20;99.90;;;;;;6242324;22;20920;-83
2021/11/03 09:23:23;;;;;;;;;;;;;;;;;;;;;
2021/11/03 09:26:15;;;;;;;;;;;;;;;;;;;;;
2021/11/03 09:29:27;;;;;;;;;;;;;;;;;;;;;
2021/11/03 09:32:37;;;;;;;768.07;703.73;;;7.30;99.90;;;;;;6109948;23;20775;-83
2021/11/03 09:35:10;;;;;;;761.93;699.30;;;7.30;99.90;;;;;;6212658;22;20799;-83
2021/11/03 09:38:08;;;;;;;755.20;696.30;;;7.30;99.90;;;;;;6277107;22;20756;-83
2021/11/03 09:40:57;;;;;;;746.37;687.17;;;7.30;99.90;;;;;;6271906;22;20501;-83
2021/11/03 09:43:57;;;;;;;747.83;686.97;;;7.30;99.90;;;;;;6277161;22;20456;-83
2021/11/03 09:46:40;;;;;;;744.70;684.90;;;7.40;99.90;;;;;;6133364;23;20482;-84
2021/11/03 09:49:41;;;;;;;737.07;677.37;;;7.30;99.90;;;;;;6272693;22;20406;-83
2021/11/03 09:52:26;;;;;;;738.03;681.30;;;7.50;99.90;;;;;;6220008;22;20492;-83
2021/11/03 09:55:08;;;;;;;734.57;678.83;;;7.40;99.90;;;;;;6276955;22;20398;-84
2021/11/03 09:57:49;;;;;;;737.37;680.70;;;7.50;99.90;;;;;;6284283;22;20430;-83
2021/11/03 10:00:38;;;;;;;733.97;676.47;;;7.50;99.90;;;;;;6274918;22;20453;-83
2021/11/03 10:03:45;;;;;;;718.60;662.80;;;7.50;99.90;;;;;;6273547;22;20409;-83
2021/11/03 10:06:17;;;;;;;726.57;670.20;;;7.70;99.90;;;;;;6275327;22;20398;-83
2021/11/03 10:09:17;;;;;;;720.20;664.47;;;7.70;99.90;;;;;;6285327;22;20438;-83
2021/11/03 10:12:16;;;;;;;;;;;;;;;;;;;;;
2021/11/03 10:14:49;;;;;;;711.43;662.23;;;7.60;99.90;;;;;;6138793;23;20444;-83
2021/11/03 10:17:47;;;;;;;;;;;;;;;;;;;;;
2021/11/03 10:21:01;;;;;;;710.30;661.50;;;7.70;99.90;;;;;;6116644;23;20483;-83
2021/11/03 10:23:44;;;;;;;713.37;663.57;;;7.70;99.90;;;;;;6221249;22;20445;-83
2021/11/03 10:26:59;;;;;;;710.73;660.83;;;7.70;99.90;;;;;;6275188;22;20781;-83
2021/11/03 10:29:48;;;;;;;715.47;666.07;;;7.80;99.90;;;;;;6121474;23;20481;-83
2021/11/03 10:32:49;;;;;;;;;;;;;;;;;;;;;
2021/11/03 10:35:39;;;;;;;;;;;;;;;;;;;;;
2021/11/03 10:38:45;;;;;;;718.33;669.00;;;7.70;99.90;;;;;;6254396;23;20431;-84
2021/11/03 10:41:22;;;;;;;717.80;667.00;;;7.70;99.90;;;;;;6121270;23;20419;-83
2021/11/03 10:44:49;;;;;;;707.40;661.63;;;7.70;99.90;;;;;;6238182;23;20996;-84
2021/11/03 10:47:57;;;;;;;710.80;663.40;;;7.80;99.90;;;;;;6182076;23;20445;-83
2021/11/03 10:50:59;;;;;;;710.97;662.10;;;7.80;99.90;;;;;;6253618;23;20412;-83
2021/11/03 10:53:55;;;;;;;707.47;658.97;;;8.00;99.90;;;;;;6256171;23;20442;-84
2021/11/03 10:56:42;;;;;;;;;;;;;;;;;;;;;
2021/11/03 10:59:30;;;;;;;711.80;665.27;;;7.90;99.90;;;;;;6244572;23;20505;-83
2021/11/03 11:02:17;;;;;;;703.40;658.60;;;8.10;99.90;;;;;;6254227;23;20411;-84
2021/11/03 11:05:29;;;;;;;694.40;651.73;;;8.00;99.90;;;;;;6255916;23;20411;-83
2021/11/03 11:08:02;;;;;;;704.73;659.20;;;8.10;99.90;;;;;;6230524;23;20473;-79
2021/11/03 11:11:29;;;;;;;709.63;664.23;;;8.00;99.90;;;;;;6245612;23;20404;-83
2021/11/03 11:14:02;;;;;;;723.83;672.70;;;7.90;99.90;;;;;;6064977;23;20443;-81
2021/11/03 11:17:00;;;;;;;742.93;687.40;;;8.00;99.90;;;;;;6256040;23;20403;-82
2021/11/03 11:20:10;;;;;;;743.30;690.17;;;8.00;99.90;;;;;;6171300;23;20489;-84
2021/11/03 11:23:11;;;;;;;736.90;686.70;;;7.90;99.90;;;;;;6121206;23;20422;-83
2021/11/03 11:25:51;;;;;;;735.27;684.37;;;7.80;99.90;;;;;;6233473;23;20432;-82
2021/11/03 11:28:47;;;;;;;;;;;;;;;;;;;;;
2021/11/03 11:31:43;;;;;;;;;;;;;;;;;;;;;
2021/11/03 11:34:26;;;;;;;747.37;691.10;;;7.80;99.90;;;;;;6283957;22;20390;-84
2021/11/03 11:37:07;;;;;;;746.87;689.27;;;7.80;99.90;;;;;;6274306;22;20405;-83
2021/11/03 11:40:03;;;;;;;747.67;691.33;;;7.80;99.90;;;;;;6284746;22;20457;-83
2021/11/03 11:42:46;;;;;;;744.30;688.80;;;7.90;99.90;;;;;;6256767;22;20786;-83
2021/11/03 11:45:21;;;;;;;755.50;699.20;;;7.80;99.90;;;;;;6276009;22;20394;-82
2021/11/03 11:58:52;;;;;;;757.37;699.17;;;7.80;99.90;;;;;;5893935;24;20559;-83
2021/11/03 12:02:11;;;;;;;;;;;;;;;;;;;;;
2021/11/03 12:05:15;;;;;;;757.80;697.80;;;7.70;99.90;;;;;;6063343;23;20415;-84
2021/11/03 12:11:28;;;;;;;;;;;;;;;;;;;;;
2021/11/03 12:14:32;;;;;;;773.73;710.37;;;7.80;99.90;;;;;;6275626;22;20418;-83
2021/11/03 12:17:46;;;;;;;777.77;714.87;;;7.80;99.90;;;;;;6275090;22;20944;-85
2021/11/03 12:24:31;;;;;;;782.70;719.30;;;7.80;99.90;;;;;;6280750;22;20465;-85
2021/11/03 12:27:38;;;;;;;800.50;735.90;;;7.80;99.90;;;;;;6277501;22;20425;-85
2021/11/03 12:30:49;;;;;;;796.43;731.60;;;7.70;99.90;;;;;;6153574;23;20417;-84
2021/11/03 12:37:49;;;;;;;;;;;;;;;;;;;;;
2021/11/03 12:46:52;;;;;;;818.93;748.37;;;7.80;99.90;;;;;;6143128;23;20415;-84
2021/11/03 12:52:55;;;;;;;822.23;751.40;;;7.70;99.90;;;;;;6108057;23;20505;-83
2021/11/03 12:59:08;;;;;;;819.33;748.17;;;7.70;99.90;;;;;;6264210;22;20434;-84
2021/11/03 13:02:26;;;;;;;;;;;;;;;;;;;;;
2021/11/03 13:08:36;;;;;;;841.20;765.77;;;7.70;99.90;;;;;;6285853;22;20369;-83
2021/11/03 13:11:51;;;;;;;834.57;762.60;;;7.80;99.90;;;;;;6285844;22;20761;-83
2021/11/03 13:14:59;;;;;;;814.83;748.20;;;7.90;99.90;;;;;;6132072;23;20477;-83
2021/11/03 13:18:13;;;;;;;810.07;741.00;;;8.00;99.90;;;;;;6081599;23;20414;-83
2021/11/03 13:24:41;;;;;;;803.33;738.83;;;8.10;99.90;;;;;;6119820;23;20914;-84
2021/11/03 13:31:02;;;;;;;814.67;753.30;;;8.30;99.90;;;;;;6270302;22;20529;-84
2021/11/03 13:34:06;;;;;;;812.93;754.23;;;8.20;99.90;;;;;;6218575;23;20945;-84
2021/11/03 13:40:02;;;;;;;803.20;744.60;;;8.10;99.90;;;;;;6138884;23;20453;-84
2021/11/03 13:49:35;;;;;;;791.50;734.17;;;8.00;99.90;;;;;;6060580;23;20423;-83
2021/11/03 13:52:26;;;;;;;786.20;726.33;;;8.10;99.90;;;;;;6182842;22;20702;-83
2021/11/03 13:58:16;;;;;;;;;;;;;;;;;;;;;
2021/11/03 14:01:11;;;;;;;774.30;716.97;;;8.00;99.90;;;;;;6222531;22;20414;-83
2021/11/03 14:03:54;;;;;;;809.53;749.27;;;8.40;99.90;;;;;;6272525;22;20397;-83
2021/11/03 14:06:30;;;;;;;815.17;756.17;;;8.20;99.90;;;;;;6273699;22;20398;-84
2021/11/03 14:09:30;;;;;;;;;;;;;;;;;;;;;
2021/11/03 14:12:15;;;;;;;;;;;;;;;;;;;;;
2021/11/03 14:15:00;;;;;;;789.30;735.80;;;8.10;99.90;;;;;;6284825;22;20398;-83
2021/11/03 14:18:09;;;;;;;782.80;728.57;;;8.00;99.90;;;;;;6283477;22;20406;-84
2021/11/03 14:21:13;;;;;;;781.67;725.77;;;8.00;99.90;;;;;;6265853;22;20512;-83
2021/11/03 14:23:50;;;;;;;784.67;726.87;;;8.00;99.90;;;;;;6130510;23;20478;-83
2021/11/03 14:26:38;;;;;;;;;;;;;;;;;;;;;
2021/11/03 14:29:26;;;;;;;786.63;726.70;;;8.00;99.90;;;;;;6275718;22;20513;-83
2021/11/03 14:32:25;;;;;;;786.07;726.70;;;8.00;99.90;;;;;;6264154;22;20411;-83
2021/11/03 14:39:02;;;;;;;;;;;;;;;;;;;;;
2021/11/03 14:41:47;;;;;;;764.03;709.70;;;7.80;99.90;;;;;;6215860;22;20418;-83
2021/11/03 14:51:28;;;;;;;;;;;;;;;;;;;;;
2021/11/03 15:28:47;;;;;;;754.43;699.23;;;7.50;99.90;;;;;;6061644;23;20947;-80
2021/11/03 15:31:43;;;;;;;760.97;704.37;;;7.60;99.90;;;;;;6104299;23;20447;-83
2021/11/03 15:41:07;;;;;;;761.60;707.23;;;7.60;99.90;;;;;;6113270;23;20450;-84
2021/11/03 15:44:08;;;;;;;756.50;700.30;;;7.50;99.90;;;;;;6134131;23;20410;-84
2021/11/03 15:47:36;;;;;;;;;;;;;;;;;;;;;
2021/11/03 15:53:17;;;;;;;748.97;696.43;;;7.50;99.90;;;;;;6179177;23;20421;-83
2021/11/03 15:56:18;;;;;;;756.03;701.23;;;7.40;99.90;;;;;;6183332;23;20425;-82
2021/11/03 16:02:25;;;;;;;752.63;701.03;;;7.40;99.90;;;;;;6284262;22;20519;-82
2021/11/03 16:09:05;;;;;;;748.93;695.63;;;7.40;99.90;;;;;;6246071;22;20468;-85
2021/11/03 16:18:26;;;;;;;752.13;699.33;;;7.30;99.90;;;;;;6148434;23;20414;-87
2021/11/03 16:24:33;;;;;;;754.20;702.80;;;7.30;99.90;;;;;;6002789;23;20754;-84
2021/11/03 16:27:51;;;;;;;758.70;706.07;;;7.40;99.90;;;;;;6278863;22;20418;-85
2021/11/03 16:33:36;;;;;;;735.53;686.93;;;7.30;99.90;;;;;;6271082;22;20411;-84
2021/11/03 16:36:24;;;;;;;731.93;684.67;;;7.30;99.90;;;;;;6287391;22;20873;-84
2021/11/03 16:38:54;;;;;;;723.50;676.60;;;7.30;99.90;;;;;;6287387;22;20437;-85
2021/11/03 16:45:13;;;;;;;719.03;671.97;;;7.20;99.90;;;;;;6287575;22;20410;-83
2021/11/03 16:47:53;;;;;;;723.00;676.70;;;7.20;99.90;;;;;;6276382;22;20402;-83
2021/11/03 16:50:52;;;;;;;;;;;;;;;;;;;;;
2021/11/03 16:53:56;;;;;;;;;;;;;;;;;;;;;
2021/11/03 16:56:39;;;;;;;718.87;674.53;;;7.30;99.90;;;;;;6168022;22;20461;-83
2021/11/03 16:59:34;;;;;;;722.10;676.90;;;7.30;99.90;;;;;;6208024;22;20896;-83
2021/11/03 17:02:10;;;;;;;743.97;694.30;;;7.30;99.90;;;;;;6270138;22;20418;-83
2021/11/03 17:04:45;;;;;;;744.87;695.57;;;7.30;99.90;;;;;;6275955;22;20406;-82
2021/11/03 17:07:34;;;;;;;752.17;701.87;;;7.20;99.90;;;;;;6275723;22;20899;-83
2021/11/03 17:10:14;;;;;;;748.87;697.33;;;7.20;99.90;;;;;;6204816;22;20810;-82
2021/11/03 17:12:48;;;;;;;741.37;691.30;;;7.10;99.90;;;;;;6275910;22;20394;-81
2021/11/03 17:15:41;;;;;;;;;;;;;;;;;;;;;
2021/11/03 17:18:40;;;;;;;;;;;;;;;;;;;;;
2021/11/03 17:21:11;;;;;;;732.93;682.53;;;7.10;99.90;;;;;;6124229;23;20530;-82
2021/11/03 17:23:38;;;;;;;728.70;679.60;;;7.10;99.90;;;;;;6225399;22;20410;-83
2021/11/03 17:26:24;;;;;;;729.47;679.77;;;7.00;99.90;;;;;;6281312;22;20452;-82
2021/11/03 17:29:16;;;;;;;730.40;682.43;;;7.00;99.90;;;;;;6274251;22;20441;-83
2021/11/03 17:41:58;;;;;;;729.93;680.53;;;7.10;99.90;;;;;;6080852;23;20517;-82
2021/11/03 17:44:43;;;;;;;734.10;684.57;;;7.00;99.90;;;;;;6177609;22;20425;-82
2021/11/03 17:47:27;;;;;;;;;;;;;;;;;;;;;
2021/11/03 17:50:21;;;;;;;742.47;691.50;;;7.00;99.90;;;;;;6205152;22;20984;-83
2021/11/03 17:53:15;;;;;;;745.33;693.93;;;6.90;99.90;;;;;;6270445;22;20445;-83
2021/11/03 17:55:51;;;;;;;755.00;702.30;;;6.90;99.90;;;;;;6120195;23;21144;-83
2021/11/03 18:05:24;;;;;;;;;;;;;;;;;;;;;
2021/11/03 18:08:12;;;;;;;770.87;713.87;;;6.90;99.90;;;;;;6023455;23;20417;-82
2021/11/03 18:30:00;;;;;;;;;;;;;;;;;;;;;
2021/11/03 18:32:44;;;;;;;771.60;712.40;;;6.90;99.90;;;;;;6062696;23;20433;-83
2021/11/03 18:38:42;;;;;;;807.83;738.47;;;6.80;99.90;;;;;;6161449;23;20481;-83
2021/11/03 18:41:33;;;;;;;834.57;761.50;;;6.90;99.90;;;;;;6242325;23;21124;-83
2021/11/03 18:44:42;;;;;;;858.03;783.43;;;7.10;99.90;;;;;;6254858;23;20407;-82
2021/11/03 18:47:47;;;;;;;871.63;795.17;;;6.90;99.90;;;;;;6251262;23;20415;-83
2021/11/03 18:50:22;;;;;;;874.77;797.30;;;6.90;99.90;;;;;;6179430;23;20720;-82
2021/11/03 18:52:53;;;;;;;872.60;793.87;;;7.10;99.90;;;;;;6243643;23;21003;-81
2021/11/03 18:56:29;;;;;;;;;;;;;;;;;;;;;
2021/11/03 18:59:14;;;;;;;;;;;;;;;;;;;;;
2021/11/03 19:02:17;;;;;;;872.97;793.00;;;7.00;99.90;;;;;;6211344;23;20446;-83
2021/11/03 19:05:25;;;;;;;;;;;;;;;;;;;;;
2021/11/03 19:16:03;;;;;;;;;;;;;;;;;;;;;
2021/11/03 19:19:08;;;;;;;;;;;;;;;;;;;;;
2021/11/03 19:21:35;;;;;;;914.80;829.97;;;6.90;99.90;;;;;;5971745;23;20454;-78
2021/11/03 19:27:44;;;;;;;935.60;849.13;;;7.00;99.90;;;;;;5987566;23;20464;-83
2021/11/03 20:22:07;;;;;;;;;;;;;;;;;;;;;
2021/11/03 20:32:05;;;;;;;;;;;;;;;;;;;;;
2021/11/03 20:44:58;;;;;;;;;;;;;;;;;;;;;
2021/11/03 21:33:58;;;;;;;982.40;886.00;;;7.10;99.90;;;;;;5017837;28;20463;-84
2021/11/03 21:37:35;;;;;;;;;;;;;;;;;;;;;
2021/11/03 21:44:29;;;;;;;;;;;;;;;;;;;;;
2021/11/03 21:47:29;;;;;;;971.37;876.13;;;7.10;99.90;;;;;;4966932;28;20440;-85
2021/11/03 21:53:41;;;;;;;980.53;882.80;;;7.10;99.90;;;;;;4968636;28;20451;-84
2021/11/03 21:56:37;;;;;;;983.87;887.50;;;7.10;99.90;;;;;;4951212;28;20461;-84
2021/11/03 21:59:08;;;;;;;978.97;881.07;;;7.10;99.90;;;;;;5039443;28;20487;-84
2021/11/03 22:02:26;;;;;;;;;;;;;;;;;;;;;
2021/11/03 22:08:18;;;;;;;966.53;869.33;;;7.20;99.90;;;;;;5109920;28;20460;-84
2021/11/03 22:10:58;;;;;;;962.03;867.57;;;7.10;99.90;;;;;;5070692;28;20456;-85
2021/11/03 22:13:58;;;;;;;;;;;;;;;;;;;;;
2021/11/03 22:16:47;;;;;;;;;;;;;;;;;;;;;
2021/11/03 22:19:35;;;;;;;961.33;865.47;;;7.10;99.90;;;;;;5108687;28;20449;-84
2021/11/03 22:22:22;;;;;;;971.77;877.00;;;7.10;99.90;;;;;;5026795;28;20460;-84
2021/11/03 22:24:51;;;;;;;968.93;876.20;;;7.20;99.90;;;;;;5108458;28;20518;-84
2021/11/03 22:27:34;;;;;;;958.80;865.00;;;7.10;99.90;;;;;;5109341;28;20453;-84
2021/11/03 22:30:20;;;;;;;;;;;;;;;;;;;;;
2021/11/03 22:32:53;;;;;;;955.50;861.37;;;7.20;99.90;;;;;;5108398;28;20455;-84
2021/11/03 22:35:26;;;;;;;963.07;869.80;;;7.10;99.90;;;;;;5109465;28;20453;-84
2021/11/03 22:41:39;;;;;;;954.00;858.70;;;7.20;99.90;;;;;;5013432;28;21046;-84
2021/11/03 22:44:24;;;;;;;958.97;865.67;;;7.20;99.90;;;;;;5091939;28;20893;-84
2021/11/03 22:46:55;;;;;;;971.87;875.70;;;7.10;99.90;;;;;;5095437;28;20995;-84
2021/11/03 22:49:49;;;;;;;970.47;874.87;;;7.00;99.90;;;;;;5095302;28;20449;-84
2021/11/03 22:52:25;;;;;;;959.43;865.80;;;7.10;99.90;;;;;;5092064;28;20856;-84
2021/11/03 22:55:13;;;;;;;954.90;862.57;;;7.00;99.90;;;;;;5095463;28;20445;-84
2021/11/03 22:57:44;;;;;;;957.23;864.43;;;7.10;99.90;;;;;;5012885;28;20832;-84
2021/11/03 23:00:21;;;;;;;953.97;860.30;;;7.10;99.90;;;;;;5013204;28;20464;-84
2021/11/03 23:02:56;;;;;;;945.80;854.50;;;7.10;99.90;;;;;;5012223;28;20916;-84
2021/11/03 23:05:47;;;;;;;940.70;849.90;;;7.10;99.90;;;;;;5013001;28;20476;-84
2021/11/03 23:08:21;;;;;;;965.20;870.83;;;7.10;99.90;;;;;;5064119;28;20457;-84
2021/11/03 23:11:04;;;;;;;;;;;;;;;;;;;;;
2021/11/03 23:14:02;;;;;;;942.83;850.10;;;7.00;99.90;;;;;;5086122;28;20943;-84
2021/11/03 23:16:44;;;;;;;958.07;864.77;;;7.10;99.90;;;;;;5093949;28;20847;-84
2021/11/03 23:19:17;;;;;;;956.30;865.60;;;7.10;99.90;;;;;;5094046;28;20454;-84
2021/11/03 23:21:45;;;;;;;925.80;839.27;;;7.00;99.90;;;;;;5094897;28;21053;-84
2021/11/03 23:24:17;;;;;;;940.50;850.23;;;7.00;99.90;;;;;;5094996;28;20449;-84
2021/11/03 23:26:46;;;;;;;943.40;852.40;;;7.00;99.90;;;;;;5094409;28;20478;-84
2021/11/03 23:29:33;;;;;;;946.97;857.60;;;7.00;99.90;;;;;;5094720;28;20457;-84
2021/11/03 23:32:25;;;;;;;941.37;851.83;;;6.90;99.90;;;;;;5093659;28;20450;-84
2021/11/03 23:35:13;;;;;;;943.47;852.77;;;6.80;99.90;;;;;;5094958;28;20457;-84
2021/11/03 23:37:41;;;;;;;948.70;856.43;;;6.80;99.90;;;;;;5094827;28;20810;-83
2021/11/03 23:40:16;;;;;;;927.27;840.67;;;6.90;99.90;;;;;;5094897;28;20537;-83
2021/11/03 23:42:46;;;;;;;927.00;838.13;;;6.80;99.90;;;;;;5094636;28;20862;-84
2021/11/03 23:45:53;;;;;;;941.23;849.43;;;6.80;99.90;;;;;;5094557;28;20446;-84
2021/11/03 23:48:24;;;;;;;953.83;863.47;;;6.80;99.90;;;;;;5092202;28;20456;-83
2021/11/03 23:50:56;;;;;;;948.23;854.43;;;6.80;99.90;;;;;;5094325;28;20457;-83
2021/11/03 23:53:27;;;;;;;948.70;855.67;;;6.70;99.90;;;;;;5075467;28;20604;-84
2021/11/03 23:56:10;;;;;;;;;;;;;;;;;;;;;
2021/11/03 23:58:37;;;;;;;953.87;861.60;;;6.80;99.90;;;;;;5093961;28;20445;-83
